Time;durP1;ratioP1;P1;durP2;ratioP2;P2;SDS_P1;SDS_P2;PMS_P1;PMS_P2;Temp;Humidity;BMP_temperature;BMP_pressure;BME280_temperature;BME280_humidity;BME280_pressure;Samples;Min_cycle;Max_cycle;Signal;HPM_P1;HPM_P2
2022/07/22 00:00:09;;;;;;;;;;;;;;;;;;1039270;28;3911;-49
2022/07/22 00:00:58;;;;;;;;;;;;;;;;;;1040677;28;1782;-50
2022/07/22 00:01:28;;;;;;;;;;;;;;;;;;1040326;28;4077;-50
2022/07/22 00:01:59;;;;;;;;;;;;;;;;;;1041443;28;1762;-55
2022/07/22 00:02:29;;;;;;;;;;;;;;;;;;1040900;28;3794;-50
2022/07/22 00:02:59;;;;;;;;;;;;;;;;;;1046219;28;1612;-53
2022/07/22 00:03:29;;;;;;;;;;;;;;;;;;1045625;28;4154;-52
2022/07/22 00:04:01;;;;;;;;;;;;;;;;;;1046034;28;1421;-49
2022/07/22 00:04:31;;;;;;;;;;;;;;;;;;1045732;28;3983;-53
2022/07/22 00:05:02;;;;;;;;;;;;;;;;;;1045882;28;1539;-51
2022/07/22 00:05:32;;;;;;;;;;;;;;;;;;1045988;28;3729;-51
2022/07/22 00:06:02;;;;;;;;;;;;;;;;;;1046215;28;1961;-49
2022/07/22 00:06:33;;;;;;;;;;;;;;;;;;1045851;28;3858;-51
2022/07/22 00:07:03;;;;;;;;;;;;;;;;;;1041627;28;1345;-52
2022/07/22 00:07:33;;;;;;;;;;;;;;;;;;1041120;28;4937;-52
2022/07/22 00:08:06;;;;;;;;;;;;;;;;;;1040844;28;4163;-52
2022/07/22 00:08:36;;;;;;;;;;;;;;;;;;1041152;28;1749;-53
2022/07/22 00:09:07;;;;;;;;;;;;;;;;;;1040244;28;4259;-48
2022/07/22 00:09:37;;;;;;;;;;;;;;;;;;1040173;28;1603;-53
2022/07/22 00:10:08;;;;;;;;;;;;;;;;;;1040345;28;3823;-50
2022/07/22 00:10:38;;;;;;;;;;;;;;;;;;1040937;28;1635;-48
2022/07/22 00:11:08;;;;;;;;;;;;;;;;;;1041752;28;4178;-50
2022/07/22 00:11:39;;;;;;;;;;;;;;;;;;1046405;28;1641;-49
2022/07/22 00:12:09;;;;;;;;;;;;;;;;;;1045528;28;4433;-51
2022/07/22 00:12:39;;;;;;;;;;;;;;;;;;1046353;28;1787;-54
2022/07/22 00:13:10;;;;;;;;;;;;;;;;;;1040435;28;4292;-51
2022/07/22 00:13:40;;;;;;;;;;;;;;;;;;1039979;28;1630;-51
2022/07/22 00:14:12;;;;;;;;;;;;;;;;;;1039862;28;4153;-50
2022/07/22 00:14:42;;;;;;;;;;;;;;;;;;1040049;28;1306;-55
2022/07/22 00:15:14;;;;;;;;;;;;;;;;;;1040181;28;4249;-50
2022/07/22 00:15:44;;;;;;;;;;;;;;;;;;1041258;28;1713;-49
2022/07/22 00:16:14;;;;;;;;;;;;;;;;;;1040070;28;5295;-51
2022/07/22 00:16:45;;;;;;;;;;;;;;;;;;1040146;28;1602;-49
2022/07/22 00:17:15;;;;;;;;;;;;;;;;;;1039620;28;3942;-52
2022/07/22 00:17:45;;;;;;;;;;;;;;;;;;1040966;28;1574;-52
2022/07/22 00:18:15;;;;;;;;;;;;;;;;;;1041038;28;4081;-51
2022/07/22 00:18:45;;;;;;;;;;;;;;;;;;1041430;28;1656;-51
2022/07/22 00:19:16;;;;;;;;;;;;;;;;;;1041041;28;4095;-52
2022/07/22 00:19:53;;;;;;;;;;;;;;;;;;1040672;28;1796;-51
2022/07/22 00:20:23;;;;;;;;;;;;;;;;;;1041015;28;4009;-53
2022/07/22 00:20:54;;;;;;;;;;;;;;;;;;1041790;28;1629;-51
2022/07/22 00:21:24;;;;;;;;;;;;;;;;;;1034006;28;3835;-55
2022/07/22 00:21:54;;;;;;;;;;;;;;;;;;1034450;28;1328;-49
2022/07/22 00:22:25;;;;;;;;;;;;;;;;;;1033509;28;3823;-51
2022/07/22 00:22:55;;;;;;;;;;;;;;;;;;1038335;28;1590;-52
2022/07/22 00:23:25;;;;;;;;;;;;;;;;;;1040277;28;3955;-54
2022/07/22 00:23:56;;;;;;;;;;;;;;;;;;1040680;28;1658;-54
2022/07/22 00:24:26;;;;;;;;;;;;;;;;;;1041426;28;4107;-51
2022/07/22 00:24:56;;;;;;;;;;;;;;;;;;1042724;28;1340;-49
2022/07/22 00:25:40;;;;;;;;;;;;;;;;;;1040708;28;3847;-51
2022/07/22 00:26:10;;;;;;;;;;;;;;;;;;1041624;28;3839;-53
2022/07/22 00:26:40;;;;;;;;;;;;;;;;;;1041089;28;1671;-52
2022/07/22 00:27:11;;;;;;;;;;;;;;;;;;1041442;28;3806;-54
2022/07/22 00:27:41;;;;;;;;;;;;;;;;;;1041642;28;1637;-53
2022/07/22 00:28:11;;;;;;;;;;;;;;;;;;1041658;28;4271;-50
2022/07/22 00:28:41;;;;;;;;;;;;;;;;;;1041890;28;1892;-52
2022/07/22 00:29:12;;;;;;;;;;;;;;;;;;1046021;28;3966;-51
2022/07/22 00:29:42;;;;;;;;;;;;;;;;;;1045783;28;1687;-53
2022/07/22 00:30:12;;;;;;;;;;;;;;;;;;1042018;28;3878;-54
2022/07/22 00:30:43;;;;;;;;;;;;;;;;;;1041164;28;2068;-51
2022/07/22 00:31:13;;;;;;;;;;;;;;;;;;1040597;28;4047;-49
2022/07/22 00:31:44;;;;;;;;;;;;;;;;;;1040291;28;3879;-49
2022/07/22 00:32:14;;;;;;;;;;;;;;;;;;1045077;28;4259;-50
2022/07/22 00:32:44;;;;;;;;;;;;;;;;;;1045082;28;1762;-54
2022/07/22 00:33:15;;;;;;;;;;;;;;;;;;1044626;28;4435;-52
2022/07/22 00:33:45;;;;;;;;;;;;;;;;;;1044493;28;1655;-51
2022/07/22 00:34:15;;;;;;;;;;;;;;;;;;1040408;28;3916;-53
2022/07/22 00:34:45;;;;;;;;;;;;;;;;;;1040964;28;1923;-52
2022/07/22 00:35:16;;;;;;;;;;;;;;;;;;1040572;28;3968;-53
2022/07/22 00:35:46;;;;;;;;;;;;;;;;;;1040913;28;1828;-48
2022/07/22 00:36:16;;;;;;;;;;;;;;;;;;1040442;28;3962;-54
2022/07/22 00:36:46;;;;;;;;;;;;;;;;;;1041008;28;1661;-54
2022/07/22 00:37:17;;;;;;;;;;;;;;;;;;1041222;28;3915;-53
2022/07/22 00:37:47;;;;;;;;;;;;;;;;;;1040765;28;1755;-52
2022/07/22 00:38:17;;;;;;;;;;;;;;;;;;1040875;28;3824;-51
2022/07/22 00:38:48;;;;;;;;;;;;;;;;;;1041338;28;1636;-52
2022/07/22 00:39:18;;;;;;;;;;;;;;;;;;1038278;28;4049;-52
2022/07/22 00:39:49;;;;;;;;;;;;;;;;;;1037433;28;1426;-52
2022/07/22 00:40:19;;;;;;;;;;;;;;;;;;1037771;28;4253;-51
2022/07/22 00:40:49;;;;;;;;;;;;;;;;;;1039310;28;1708;-50
2022/07/22 00:41:19;;;;;;;;;;;;;;;;;;1039827;28;4420;-53
2022/07/22 00:41:50;;;;;;;;;;;;;;;;;;1035960;28;1701;-49
2022/07/22 00:42:20;;;;;;;;;;;;;;;;;;1040012;28;4179;-50
2022/07/22 00:42:51;;;;;;;;;;;;;;;;;;1040632;28;1580;-51
2022/07/22 00:43:21;;;;;;;;;;;;;;;;;;1045197;28;3828;-53
2022/07/22 00:43:51;;;;;;;;;;;;;;;;;;1046002;28;1806;-52
2022/07/22 00:44:22;;;;;;;;;;;;;;;;;;1046295;28;4030;-53
2022/07/22 00:44:52;;;;;;;;;;;;;;;;;;1046335;28;1832;-51
2022/07/22 00:45:22;;;;;;;;;;;;;;;;;;1040811;28;4177;-50
2022/07/22 00:45:52;;;;;;;;;;;;;;;;;;1040264;28;1628;-51
2022/07/22 00:46:23;;;;;;;;;;;;;;;;;;1041834;28;3982;-48
2022/07/22 00:46:54;;;;;;;;;;;;;;;;;;1035729;28;1245;-52
2022/07/22 00:47:24;;;;;;;;;;;;;;;;;;1032520;28;4244;-49
2022/07/22 00:47:54;;;;;;;;;;;;;;;;;;1027129;28;2243;-51
2022/07/22 00:48:25;;;;;;;;;;;;;;;;;;1031588;28;3980;-49
2022/07/22 00:48:55;;;;;;;;;;;;;;;;;;1037789;28;1663;-53
2022/07/22 00:49:25;;;;;;;;;;;;;;;;;;1040783;28;4103;-52
2022/07/22 00:49:55;;;;;;;;;;;;;;;;;;1044879;28;2159;-53
2022/07/22 00:50:26;;;;;;;;;;;;;;;;;;1043314;28;4035;-49
2022/07/22 00:50:56;;;;;;;;;;;;;;;;;;1043686;28;2008;-52
2022/07/22 00:51:28;;;;;;;;;;;;;;;;;;1045106;28;4057;-53
2022/07/22 00:51:58;;;;;;;;;;;;;;;;;;1042744;28;1766;-53
2022/07/22 00:52:28;;;;;;;;;;;;;;;;;;1040677;28;4076;-55
2022/07/22 00:52:59;;;;;;;;;;;;;;;;;;1040789;28;1651;-51
2022/07/22 00:53:29;;;;;;;;;;;;;;;;;;1040827;28;4475;-48
2022/07/22 00:54:00;;;;;;;;;;;;;;;;;;1040187;28;1911;-49
2022/07/22 00:54:30;;;;;;;;;;;;;;;;;;1039367;28;4198;-53
2022/07/22 00:55:01;;;;;;;;;;;;;;;;;;1040088;28;1830;-53
2022/07/22 00:55:33;;;;;;;;;;;;;;;;;;1039969;28;3825;-50
2022/07/22 00:56:04;;;;;;;;;;;;;;;;;;1040484;28;3950;-56
2022/07/22 00:56:34;;;;;;;;;;;;;;;;;;1040811;28;1589;-53
2022/07/22 00:57:04;;;;;;;;;;;;;;;;;;1040846;28;4221;-49
2022/07/22 00:57:34;;;;;;;;;;;;;;;;;;1041073;28;1967;-52
2022/07/22 00:58:05;;;;;;;;;;;;;;;;;;1040490;28;3895;-51
2022/07/22 00:58:35;;;;;;;;;;;;;;;;;;1041608;28;1740;-52
2022/07/22 00:59:07;;;;;;;;;;;;;;;;;;1045593;28;3796;-56
2022/07/22 00:59:38;;;;;;;;;;;;;;;;;;1045780;28;1620;-51
2022/07/22 01:00:10;;;;;;;;;;;;;;;;;;1045810;28;4007;-49
2022/07/22 01:00:40;;;;;;;;;;;;;;;;;;1045162;28;1671;-50
2022/07/22 01:01:10;;;;;;;;;;;;;;;;;;1040701;28;3971;-55
2022/07/22 01:01:41;;;;;;;;;;;;;;;;;;1040781;28;1342;-52
2022/07/22 01:02:11;;;;;;;;;;;;;;;;;;1040802;28;4007;-55
2022/07/22 01:02:41;;;;;;;;;;;;;;;;;;1040485;28;1695;-49
2022/07/22 01:03:11;;;;;;;;;;;;;;;;;;1040315;28;4421;-52
2022/07/22 01:03:42;;;;;;;;;;;;;;;;;;1040879;28;1746;-49
2022/07/22 01:04:13;;;;;;;;;;;;;;;;;;1041807;28;3800;-52
2022/07/22 01:04:43;;;;;;;;;;;;;;;;;;1041058;28;1863;-53
2022/07/22 01:05:13;;;;;;;;;;;;;;;;;;1041853;28;3872;-52
2022/07/22 01:05:43;;;;;;;;;;;;;;;;;;1040731;28;1676;-52
2022/07/22 01:06:14;;;;;;;;;;;;;;;;;;1041398;28;3904;-54
2022/07/22 01:06:44;;;;;;;;;;;;;;;;;;1040877;28;1494;-50
2022/07/22 01:07:14;;;;;;;;;;;;;;;;;;1041885;28;4140;-51
2022/07/22 01:07:45;;;;;;;;;;;;;;;;;;1040836;28;1756;-54
2022/07/22 01:08:15;;;;;;;;;;;;;;;;;;1039979;28;4332;-50
2022/07/22 01:08:45;;;;;;;;;;;;;;;;;;1041020;28;1688;-51
2022/07/22 01:09:16;;;;;;;;;;;;;;;;;;1040066;28;3859;-52
2022/07/22 01:09:46;;;;;;;;;;;;;;;;;;1041025;28;1592;-55
2022/07/22 01:10:16;;;;;;;;;;;;;;;;;;1044155;28;3983;-51
2022/07/22 01:10:47;;;;;;;;;;;;;;;;;;1040179;28;1967;-53
2022/07/22 01:11:18;;;;;;;;;;;;;;;;;;1040243;28;4414;-50
2022/07/22 01:11:49;;;;;;;;;;;;;;;;;;1039997;28;1723;-55
2022/07/22 01:12:19;;;;;;;;;;;;;;;;;;1042105;28;4431;-51
2022/07/22 01:12:49;;;;;;;;;;;;;;;;;;1044327;28;1810;-50
2022/07/22 01:13:19;;;;;;;;;;;;;;;;;;1044857;28;3911;-52
2022/07/22 01:13:50;;;;;;;;;;;;;;;;;;1044565;28;1636;-55
2022/07/22 01:14:21;;;;;;;;;;;;;;;;;;1040625;28;3806;-51
2022/07/22 01:14:51;;;;;;;;;;;;;;;;;;1039640;28;1696;-52
2022/07/22 01:15:21;;;;;;;;;;;;;;;;;;1040118;28;3835;-50
2022/07/22 01:15:52;;;;;;;;;;;;;;;;;;1041174;28;1802;-53
2022/07/22 01:16:23;;;;;;;;;;;;;;;;;;1040415;28;3810;-52
2022/07/22 01:16:53;;;;;;;;;;;;;;;;;;1039462;28;1710;-52
2022/07/22 01:17:23;;;;;;;;;;;;;;;;;;1040706;28;3952;-53
2022/07/22 01:17:54;;;;;;;;;;;;;;;;;;1040097;28;1626;-51
2022/07/22 01:18:30;;;;;;;;;;;;;;;;;;1040228;28;4022;-51
2022/07/22 01:19:00;;;;;;;;;;;;;;;;;;1040866;28;1700;-54
2022/07/22 01:19:31;;;;;;;;;;;;;;;;;;1044768;28;3969;-53
2022/07/22 01:20:03;;;;;;;;;;;;;;;;;;1044237;28;1366;-50
2022/07/22 01:20:34;;;;;;;;;;;;;;;;;;1043316;28;3979;-50
2022/07/22 01:21:05;;;;;;;;;;;;;;;;;;1039505;28;3979;-50
2022/07/22 01:21:36;;;;;;;;;;;;;;;;;;1036335;28;1605;-53
2022/07/22 01:22:06;;;;;;;;;;;;;;;;;;1035972;28;3857;-51
2022/07/22 01:22:36;;;;;;;;;;;;;;;;;;1037024;28;1575;-53
2022/07/22 01:23:07;;;;;;;;;;;;;;;;;;1037476;28;3922;-51
2022/07/22 01:23:37;;;;;;;;;;;;;;;;;;1040546;28;1650;-52
2022/07/22 01:24:08;;;;;;;;;;;;;;;;;;1040259;28;4317;-54
2022/07/22 01:24:38;;;;;;;;;;;;;;;;;;1041072;28;1668;-49
2022/07/22 01:25:08;;;;;;;;;;;;;;;;;;1039805;28;4242;-51
2022/07/22 01:25:52;;;;;;;;;;;;;;;;;;1038980;28;1673;-51
2022/07/22 01:26:29;;;;;;;;;;;;;;;;;;1033465;28;4029;-51
2022/07/22 01:26:59;;;;;;;;;;;;;;;;;;1033059;28;1683;-54
2022/07/22 01:27:30;;;;;;;;;;;;;;;;;;1035913;28;4028;-52
2022/07/22 01:28:00;;;;;;;;;;;;;;;;;;1036483;28;1603;-50
2022/07/22 01:28:30;;;;;;;;;;;;;;;;;;1038001;28;3944;-53
2022/07/22 01:29:01;;;;;;;;;;;;;;;;;;1038112;28;1584;-53
2022/07/22 01:29:31;;;;;;;;;;;;;;;;;;1037029;28;3818;-53
2022/07/22 01:30:03;;;;;;;;;;;;;;;;;;1038298;28;1608;-50
2022/07/22 01:30:33;;;;;;;;;;;;;;;;;;1037630;28;3783;-49
2022/07/22 01:31:03;;;;;;;;;;;;;;;;;;1037826;28;3972;-53
2022/07/22 01:31:34;;;;;;;;;;;;;;;;;;1037170;28;1608;-48
2022/07/22 01:32:04;;;;;;;;;;;;;;;;;;1037658;28;3945;-50
2022/07/22 01:32:34;;;;;;;;;;;;;;;;;;1037543;28;1791;-50
2022/07/22 01:33:05;;;;;;;;;;;;;;;;;;1038033;28;4382;-51
2022/07/22 01:33:35;;;;;;;;;;;;;;;;;;1037212;28;1949;-49
2022/07/22 01:34:05;;;;;;;;;;;;;;;;;;1041772;28;4054;-53
2022/07/22 01:34:36;;;;;;;;;;;;;;;;;;1041538;28;1818;-51
2022/07/22 01:35:06;;;;;;;;;;;;;;;;;;1041707;28;4056;-49
2022/07/22 01:35:37;;;;;;;;;;;;;;;;;;1041193;28;1810;-53
2022/07/22 01:36:07;;;;;;;;;;;;;;;;;;1037789;28;4137;-50
2022/07/22 01:36:37;;;;;;;;;;;;;;;;;;1037450;28;1820;-52
2022/07/22 01:37:08;;;;;;;;;;;;;;;;;;1037823;28;4423;-51
2022/07/22 01:37:38;;;;;;;;;;;;;;;;;;1037209;28;1910;-50
2022/07/22 01:38:08;;;;;;;;;;;;;;;;;;1037914;28;3960;-53
2022/07/22 01:38:39;;;;;;;;;;;;;;;;;;1037871;28;1652;-52
2022/07/22 01:39:10;;;;;;;;;;;;;;;;;;1037361;28;3913;-51
2022/07/22 01:39:40;;;;;;;;;;;;;;;;;;1038013;28;1893;-52
2022/07/22 01:40:11;;;;;;;;;;;;;;;;;;1037680;28;4080;-53
2022/07/22 01:40:42;;;;;;;;;;;;;;;;;;1037868;28;1682;-52
2022/07/22 01:41:12;;;;;;;;;;;;;;;;;;1037438;28;4388;-49
2022/07/22 01:41:43;;;;;;;;;;;;;;;;;;1037992;28;1687;-53
2022/07/22 01:42:13;;;;;;;;;;;;;;;;;;1037904;28;4029;-49
2022/07/22 01:42:43;;;;;;;;;;;;;;;;;;1031983;28;1086;-53
2022/07/22 01:43:17;;;;;;;;;;;;;;;;;;1029570;28;3907;-54
2022/07/22 01:43:47;;;;;;;;;;;;;;;;;;1029894;28;1692;-53
2022/07/22 01:44:17;;;;;;;;;;;;;;;;;;1029854;28;4426;-52
2022/07/22 01:44:48;;;;;;;;;;;;;;;;;;1034559;28;2001;-52
2022/07/22 01:45:18;;;;;;;;;;;;;;;;;;1037927;28;4048;-51
2022/07/22 01:45:51;;;;;;;;;;;;;;;;;;1037988;28;1857;-52
2022/07/22 01:46:23;;;;;;;;;;;;;;;;;;1037988;28;3829;-52
2022/07/22 01:46:53;;;;;;;;;;;;;;;;;;1038456;28;1601;-48
2022/07/22 01:47:24;;;;;;;;;;;;;;;;;;1037236;28;3893;-53
2022/07/22 01:47:54;;;;;;;;;;;;;;;;;;1037918;28;1478;-51
2022/07/22 01:48:24;;;;;;;;;;;;;;;;;;1033354;28;4436;-52
2022/07/22 01:48:55;;;;;;;;;;;;;;;;;;1032623;28;1683;-49
2022/07/22 01:49:25;;;;;;;;;;;;;;;;;;1035745;28;4109;-50
2022/07/22 01:49:56;;;;;;;;;;;;;;;;;;1037204;28;1672;-53
2022/07/22 01:50:26;;;;;;;;;;;;;;;;;;1037703;28;3954;-54
2022/07/22 01:50:57;;;;;;;;;;;;;;;;;;1036651;28;1807;-51
2022/07/22 01:51:27;;;;;;;;;;;;;;;;;;1037233;28;3975;-51
2022/07/22 01:51:57;;;;;;;;;;;;;;;;;;1036982;28;1738;-52
2022/07/22 01:52:27;;;;;;;;;;;;;;;;;;1037728;28;4756;-53
2022/07/22 01:52:58;;;;;;;;;;;;;;;;;;1041484;28;1802;-53
2022/07/22 01:53:28;;;;;;;;;;;;;;;;;;1041752;28;3965;-50
2022/07/22 01:53:58;;;;;;;;;;;;;;;;;;1037528;28;1316;-52
2022/07/22 01:54:29;;;;;;;;;;;;;;;;;;1037777;28;4378;-52
2022/07/22 01:54:59;;;;;;;;;;;;;;;;;;1037659;28;1359;-53
2022/07/22 01:55:29;;;;;;;;;;;;;;;;;;1037770;28;3782;-52
2022/07/22 01:56:00;;;;;;;;;;;;;;;;;;1037158;28;1729;-51
2022/07/22 01:56:30;;;;;;;;;;;;;;;;;;1041548;28;3804;-52
2022/07/22 01:57:00;;;;;;;;;;;;;;;;;;1041280;28;1644;-50
2022/07/22 01:57:31;;;;;;;;;;;;;;;;;;1041725;28;4660;-51
2022/07/22 01:58:03;;;;;;;;;;;;;;;;;;1041493;28;1799;-50
2022/07/22 01:58:33;;;;;;;;;;;;;;;;;;1041580;28;3873;-50
2022/07/22 01:59:04;;;;;;;;;;;;;;;;;;1040950;28;4405;-50
2022/07/22 01:59:34;;;;;;;;;;;;;;;;;;1041670;28;1217;-50
2022/07/22 02:00:05;;;;;;;;;;;;;;;;;;1037356;28;4059;-52
2022/07/22 02:00:36;;;;;;;;;;;;;;;;;;1037767;28;1625;-49
2022/07/22 02:01:07;;;;;;;;;;;;;;;;;;1036817;28;4245;-54
2022/07/22 02:01:37;;;;;;;;;;;;;;;;;;1038581;28;1722;-54
2022/07/22 02:02:07;;;;;;;;;;;;;;;;;;1037240;28;4259;-51
2022/07/22 02:02:38;;;;;;;;;;;;;;;;;;1034607;28;1672;-53
2022/07/22 02:03:10;;;;;;;;;;;;;;;;;;1036412;28;3960;-51
2022/07/22 02:03:40;;;;;;;;;;;;;;;;;;1038586;28;1678;-53
2022/07/22 02:04:10;;;;;;;;;;;;;;;;;;1037312;28;3892;-54
2022/07/22 02:04:41;;;;;;;;;;;;;;;;;;1041849;28;1417;-52
2022/07/22 02:05:12;;;;;;;;;;;;;;;;;;1041085;28;4240;-54
2022/07/22 02:05:42;;;;;;;;;;;;;;;;;;1038583;28;1557;-50
2022/07/22 02:06:12;;;;;;;;;;;;;;;;;;1037062;28;4249;-50
2022/07/22 02:06:42;;;;;;;;;;;;;;;;;;1038464;28;1672;-53
2022/07/22 02:07:13;;;;;;;;;;;;;;;;;;1036716;28;3962;-50
2022/07/22 02:07:43;;;;;;;;;;;;;;;;;;1037993;28;1682;-52
2022/07/22 02:08:13;;;;;;;;;;;;;;;;;;1037208;28;4411;-54
2022/07/22 02:08:43;;;;;;;;;;;;;;;;;;1038769;28;1316;-52
2022/07/22 02:09:14;;;;;;;;;;;;;;;;;;1037202;28;4395;-51
2022/07/22 02:09:44;;;;;;;;;;;;;;;;;;1037789;28;1325;-50
2022/07/22 02:10:14;;;;;;;;;;;;;;;;;;1037046;28;4045;-52
2022/07/22 02:10:45;;;;;;;;;;;;;;;;;;1038414;28;1584;-51
2022/07/22 02:11:15;;;;;;;;;;;;;;;;;;1037160;28;4013;-52
2022/07/22 02:11:45;;;;;;;;;;;;;;;;;;1038519;28;1750;-54
2022/07/22 02:12:15;;;;;;;;;;;;;;;;;;1037458;28;3802;-54
2022/07/22 02:12:46;;;;;;;;;;;;;;;;;;1037730;28;1698;-51
2022/07/22 02:13:16;;;;;;;;;;;;;;;;;;1036774;28;3900;-49
2022/07/22 02:13:46;;;;;;;;;;;;;;;;;;1038173;28;1479;-52
2022/07/22 02:14:23;;;;;;;;;;;;;;;;;;1037725;28;3999;-52
2022/07/22 02:14:53;;;;;;;;;;;;;;;;;;1037670;28;1480;-49
2022/07/22 02:15:24;;;;;;;;;;;;;;;;;;1037406;28;4026;-50
2022/07/22 02:15:54;;;;;;;;;;;;;;;;;;1038146;28;1556;-54
2022/07/22 02:16:24;;;;;;;;;;;;;;;;;;1041495;28;3850;-50
2022/07/22 02:16:55;;;;;;;;;;;;;;;;;;1042079;28;1846;-48
2022/07/22 02:17:25;;;;;;;;;;;;;;;;;;1041022;28;4005;-50
2022/07/22 02:17:56;;;;;;;;;;;;;;;;;;1042086;28;1670;-51
2022/07/22 02:18:26;;;;;;;;;;;;;;;;;;1035533;28;3913;-52
2022/07/22 02:18:57;;;;;;;;;;;;;;;;;;1038190;28;1466;-50
2022/07/22 02:19:27;;;;;;;;;;;;;;;;;;1036122;28;4058;-51
2022/07/22 02:19:57;;;;;;;;;;;;;;;;;;1038040;28;1721;-52
2022/07/22 02:20:27;;;;;;;;;;;;;;;;;;1036211;28;3926;-50
2022/07/22 02:20:58;;;;;;;;;;;;;;;;;;1038133;28;1362;-51
2022/07/22 02:21:28;;;;;;;;;;;;;;;;;;1037200;28;4025;-53
2022/07/22 02:21:58;;;;;;;;;;;;;;;;;;1042033;28;1647;-51
2022/07/22 02:22:28;;;;;;;;;;;;;;;;;;1040533;28;4042;-53
2022/07/22 02:22:59;;;;;;;;;;;;;;;;;;1041935;28;1834;-54
2022/07/22 02:23:29;;;;;;;;;;;;;;;;;;1040763;28;4217;-52
2022/07/22 02:23:59;;;;;;;;;;;;;;;;;;1038288;28;1119;-50
2022/07/22 02:24:30;;;;;;;;;;;;;;;;;;1036427;28;4384;-53
2022/07/22 02:25:00;;;;;;;;;;;;;;;;;;1037896;28;1735;-50
2022/07/22 02:25:44;;;;;;;;;;;;;;;;;;1037777;28;4194;-53
2022/07/22 02:26:21;;;;;;;;;;;;;;;;;;1040089;28;4045;-49
2022/07/22 02:26:51;;;;;;;;;;;;;;;;;;1040126;28;1592;-51
2022/07/22 02:27:21;;;;;;;;;;;;;;;;;;1040408;28;4422;-50
2022/07/22 02:27:52;;;;;;;;;;;;;;;;;;1041181;28;1643;-52
2022/07/22 02:28:22;;;;;;;;;;;;;;;;;;1039464;28;3976;-52
2022/07/22 02:28:52;;;;;;;;;;;;;;;;;;1039780;28;1853;-48
2022/07/22 02:29:23;;;;;;;;;;;;;;;;;;1040688;28;4129;-50
2022/07/22 02:29:53;;;;;;;;;;;;;;;;;;1040512;28;2168;-51
2022/07/22 02:30:23;;;;;;;;;;;;;;;;;;1040412;28;3792;-51
2022/07/22 02:30:53;;;;;;;;;;;;;;;;;;1039199;28;1576;-52
2022/07/22 02:31:24;;;;;;;;;;;;;;;;;;1040754;28;3980;-50
2022/07/22 02:31:54;;;;;;;;;;;;;;;;;;1036483;28;2926;-49
2022/07/22 02:32:24;;;;;;;;;;;;;;;;;;1037582;28;5305;-50
2022/07/22 02:32:55;;;;;;;;;;;;;;;;;;1037267;28;1854;-52
2022/07/22 02:33:25;;;;;;;;;;;;;;;;;;1040022;28;4375;-48
2022/07/22 02:33:55;;;;;;;;;;;;;;;;;;1044194;28;1515;-49
2022/07/22 02:34:25;;;;;;;;;;;;;;;;;;1044135;28;3891;-52
2022/07/22 02:34:56;;;;;;;;;;;;;;;;;;1043285;28;1641;-49
2022/07/22 02:35:26;;;;;;;;;;;;;;;;;;1044420;28;3850;-51
2022/07/22 02:35:56;;;;;;;;;;;;;;;;;;1040262;28;1714;-49
2022/07/22 02:36:27;;;;;;;;;;;;;;;;;;1039971;28;4001;-50
2022/07/22 02:36:57;;;;;;;;;;;;;;;;;;1042746;28;1845;-48
2022/07/22 02:37:27;;;;;;;;;;;;;;;;;;1043922;28;4366;-50
2022/07/22 02:37:57;;;;;;;;;;;;;;;;;;1043661;28;1672;-50
2022/07/22 02:38:28;;;;;;;;;;;;;;;;;;1043069;28;3882;-53
2022/07/22 02:38:58;;;;;;;;;;;;;;;;;;1040742;28;1645;-51
2022/07/22 02:39:28;;;;;;;;;;;;;;;;;;1040455;28;3910;-55
2022/07/22 02:39:59;;;;;;;;;;;;;;;;;;1041549;28;1588;-53
2022/07/22 02:40:29;;;;;;;;;;;;;;;;;;1044621;28;4175;-54
2022/07/22 02:40:59;;;;;;;;;;;;;;;;;;1045148;28;1812;-57
2022/07/22 02:41:29;;;;;;;;;;;;;;;;;;1045400;28;4272;-50
2022/07/22 02:42:00;;;;;;;;;;;;;;;;;;1045603;28;1690;-55
2022/07/22 02:42:30;;;;;;;;;;;;;;;;;;1040861;28;4170;-50
2022/07/22 02:43:00;;;;;;;;;;;;;;;;;;1040657;28;1661;-55
2022/07/22 02:43:30;;;;;;;;;;;;;;;;;;1040351;28;3805;-52
2022/07/22 02:44:01;;;;;;;;;;;;;;;;;;1040684;28;1693;-51
2022/07/22 02:44:31;;;;;;;;;;;;;;;;;;1045960;28;4121;-51
2022/07/22 02:45:03;;;;;;;;;;;;;;;;;;1041958;28;1376;-54
2022/07/22 02:45:33;;;;;;;;;;;;;;;;;;1041235;28;3728;-53
2022/07/22 02:46:03;;;;;;;;;;;;;;;;;;1041906;28;1689;-53
2022/07/22 02:46:34;;;;;;;;;;;;;;;;;;1041883;28;3639;-52
2022/07/22 02:47:04;;;;;;;;;;;;;;;;;;1041574;28;3892;-51
2022/07/22 02:47:34;;;;;;;;;;;;;;;;;;1042165;28;1679;-51
2022/07/22 02:48:05;;;;;;;;;;;;;;;;;;1041316;28;3858;-50
2022/07/22 02:48:35;;;;;;;;;;;;;;;;;;1040868;28;1778;-53
2022/07/22 02:49:05;;;;;;;;;;;;;;;;;;1040698;28;3917;-51
2022/07/22 02:49:35;;;;;;;;;;;;;;;;;;1041183;28;1567;-51
2022/07/22 02:50:06;;;;;;;;;;;;;;;;;;1039627;28;4562;-52
2022/07/22 02:50:37;;;;;;;;;;;;;;;;;;1042058;28;1713;-54
2022/07/22 02:51:08;;;;;;;;;;;;;;;;;;1041016;28;3855;-49
2022/07/22 02:51:38;;;;;;;;;;;;;;;;;;1041444;28;1627;-51
2022/07/22 02:52:08;;;;;;;;;;;;;;;;;;1040439;28;4439;-51
2022/07/22 02:52:38;;;;;;;;;;;;;;;;;;1040900;28;1427;-51
2022/07/22 02:53:09;;;;;;;;;;;;;;;;;;1039892;28;3904;-51
2022/07/22 02:53:39;;;;;;;;;;;;;;;;;;1042433;28;1626;-51
2022/07/22 02:54:09;;;;;;;;;;;;;;;;;;1041336;28;3931;-52
2022/07/22 02:54:40;;;;;;;;;;;;;;;;;;1040396;28;1333;-54
2022/07/22 02:55:10;;;;;;;;;;;;;;;;;;1039997;28;4268;-54
2022/07/22 02:55:40;;;;;;;;;;;;;;;;;;1041603;28;1674;-53
2022/07/22 02:56:10;;;;;;;;;;;;;;;;;;1041226;28;3904;-50
2022/07/22 02:56:41;;;;;;;;;;;;;;;;;;1041878;28;1583;-49
2022/07/22 02:57:11;;;;;;;;;;;;;;;;;;1040010;28;3815;-52
2022/07/22 02:57:42;;;;;;;;;;;;;;;;;;1041823;28;1977;-49
2022/07/22 02:58:12;;;;;;;;;;;;;;;;;;1041575;28;4417;-51
2022/07/22 02:58:42;;;;;;;;;;;;;;;;;;1042769;28;1962;-50
2022/07/22 02:59:12;;;;;;;;;;;;;;;;;;1041642;28;3907;-52
2022/07/22 02:59:43;;;;;;;;;;;;;;;;;;1042761;28;1713;-49
2022/07/22 03:00:14;;;;;;;;;;;;;;;;;;1040059;28;4172;-55
2022/07/22 03:00:44;;;;;;;;;;;;;;;;;;1040746;28;1591;-48
2022/07/22 03:01:14;;;;;;;;;;;;;;;;;;1041637;28;3930;-51
2022/07/22 03:01:44;;;;;;;;;;;;;;;;;;1046915;28;1640;-52
2022/07/22 03:02:15;;;;;;;;;;;;;;;;;;1045582;28;3922;-51
2022/07/22 03:02:45;;;;;;;;;;;;;;;;;;1046714;28;1997;-55
2022/07/22 03:03:15;;;;;;;;;;;;;;;;;;1039306;28;4302;-51
2022/07/22 03:03:46;;;;;;;;;;;;;;;;;;1041551;28;1435;-54
2022/07/22 03:04:16;;;;;;;;;;;;;;;;;;1041119;28;3829;-54
2022/07/22 03:04:46;;;;;;;;;;;;;;;;;;1041696;28;1234;-52
2022/07/22 03:05:16;;;;;;;;;;;;;;;;;;1040630;28;4062;-50
2022/07/22 03:05:47;;;;;;;;;;;;;;;;;;1041792;28;1638;-54
2022/07/22 03:06:17;;;;;;;;;;;;;;;;;;1040328;28;4065;-51
2022/07/22 03:06:48;;;;;;;;;;;;;;;;;;1041367;28;1559;-54
2022/07/22 03:07:18;;;;;;;;;;;;;;;;;;1040415;28;4128;-53
2022/07/22 03:07:49;;;;;;;;;;;;;;;;;;1042080;28;1558;-52
2022/07/22 03:08:25;;;;;;;;;;;;;;;;;;1041459;28;3927;-53
2022/07/22 03:08:55;;;;;;;;;;;;;;;;;;1040340;28;1688;-56
2022/07/22 03:09:26;;;;;;;;;;;;;;;;;;1041606;28;4031;-53
2022/07/22 03:09:56;;;;;;;;;;;;;;;;;;1041055;28;1645;-51
2022/07/22 03:10:26;;;;;;;;;;;;;;;;;;1044598;28;4034;-51
2022/07/22 03:10:56;;;;;;;;;;;;;;;;;;1044703;28;1611;-54
2022/07/22 03:11:27;;;;;;;;;;;;;;;;;;1044645;28;3996;-53
2022/07/22 03:11:57;;;;;;;;;;;;;;;;;;1042579;28;1761;-55
2022/07/22 03:12:27;;;;;;;;;;;;;;;;;;1041274;28;3913;-52
2022/07/22 03:12:57;;;;;;;;;;;;;;;;;;1042781;28;1694;-53
2022/07/22 03:13:28;;;;;;;;;;;;;;;;;;1041383;28;4194;-52
2022/07/22 03:13:58;;;;;;;;;;;;;;;;;;1041802;28;1602;-51
2022/07/22 03:14:28;;;;;;;;;;;;;;;;;;1040914;28;4147;-55
2022/07/22 03:14:59;;;;;;;;;;;;;;;;;;1041611;28;1559;-51
2022/07/22 03:15:29;;;;;;;;;;;;;;;;;;1041028;28;4033;-52
2022/07/22 03:15:59;;;;;;;;;;;;;;;;;;1041561;28;1364;-52
2022/07/22 03:16:29;;;;;;;;;;;;;;;;;;1040808;28;4383;-51
2022/07/22 03:17:00;;;;;;;;;;;;;;;;;;1042002;28;1615;-50
2022/07/22 03:17:33;;;;;;;;;;;;;;;;;;1041335;28;3749;-51
2022/07/22 03:18:03;;;;;;;;;;;;;;;;;;1040744;28;4138;-52
2022/07/22 03:18:34;;;;;;;;;;;;;;;;;;1041475;28;1635;-53
2022/07/22 03:19:04;;;;;;;;;;;;;;;;;;1042203;28;4239;-50
2022/07/22 03:19:35;;;;;;;;;;;;;;;;;;1038033;28;1606;-54
2022/07/22 03:20:06;;;;;;;;;;;;;;;;;;1038042;28;4057;-53
2022/07/22 03:20:37;;;;;;;;;;;;;;;;;;1041371;28;1696;-52
2022/07/22 03:21:07;;;;;;;;;;;;;;;;;;1041998;28;4073;-51
2022/07/22 03:21:37;;;;;;;;;;;;;;;;;;1042200;28;1588;-53
2022/07/22 03:22:08;;;;;;;;;;;;;;;;;;1041416;28;3913;-52
2022/07/22 03:22:38;;;;;;;;;;;;;;;;;;1041951;28;1680;-52
2022/07/22 03:23:08;;;;;;;;;;;;;;;;;;1041977;28;4053;-50
2022/07/22 03:23:39;;;;;;;;;;;;;;;;;;1041436;28;1749;-52
2022/07/22 03:24:09;;;;;;;;;;;;;;;;;;1040478;28;4116;-52
2022/07/22 03:24:39;;;;;;;;;;;;;;;;;;1040921;28;1833;-53
2022/07/22 03:25:10;;;;;;;;;;;;;;;;;;1041677;28;4004;-54
2022/07/22 03:25:54;;;;;;;;;;;;;;;;;;1041081;28;1876;-50
2022/07/22 03:26:31;;;;;;;;;;;;;;;;;;1040357;28;3947;-52
2022/07/22 03:27:01;;;;;;;;;;;;;;;;;;1039738;28;1792;-53
2022/07/22 03:27:31;;;;;;;;;;;;;;;;;;1040711;28;3913;-54
2022/07/22 03:28:02;;;;;;;;;;;;;;;;;;1039920;28;1642;-54
2022/07/22 03:28:32;;;;;;;;;;;;;;;;;;1045258;28;3741;-52
2022/07/22 03:29:02;;;;;;;;;;;;;;;;;;1046078;28;1544;-52
2022/07/22 03:29:33;;;;;;;;;;;;;;;;;;1046132;28;3943;-52
2022/07/22 03:30:04;;;;;;;;;;;;;;;;;;1046569;28;1921;-54
2022/07/22 03:30:34;;;;;;;;;;;;;;;;;;1046037;28;3931;-51
2022/07/22 03:31:05;;;;;;;;;;;;;;;;;;1044996;28;4090;-50
2022/07/22 03:31:35;;;;;;;;;;;;;;;;;;1041573;28;3667;-53
2022/07/22 03:32:05;;;;;;;;;;;;;;;;;;1041665;28;4446;-51
2022/07/22 03:32:35;;;;;;;;;;;;;;;;;;1042132;28;1750;-55
2022/07/22 03:33:06;;;;;;;;;;;;;;;;;;1041654;28;4083;-52